Time;durP1;ratioP1;P1;durP2;ratioP2;P2;SDS_P1;SDS_P2;PMS_P1;PMS_P2;Temp;Humidity;BMP_temperature;BMP_pressure;BME280_temperature;BME280_humidity;BME280_pressure;Samples;Min_cycle;Max_cycle;Signal;HPM_P1;HPM_P2
2023/03/20 00:02:14;;;;;;;12.48;6.65;;;;;;;-144.57;100.00;62443.72;4751167;30;20074;-62
2023/03/20 00:04:40;;;;;;;15.50;5.93;;;;;;;-144.57;100.00;62443.72;4764412;30;20083;-61
2023/03/20 00:07:09;;;;;;;11.20;5.85;;;;;;;-144.57;100.00;62443.72;4751029;30;20087;-61
2023/03/20 00:09:35;;;;;;;15.48;6.78;;;;;;;-144.57;100.00;62443.72;4764429;30;20056;-62
2023/03/20 00:12:01;;;;;;;11.45;6.47;;;;;;;-144.57;100.00;62443.72;4764408;30;20060;-62
2023/03/20 00:14:27;;;;;;;12.23;5.93;;;;;;;-144.57;100.00;62443.72;4764434;30;20058;-62
2023/03/20 00:16:52;;;;;;;9.75;5.78;;;;;;;-144.57;100.00;62443.72;4750853;30;20616;-61
2023/03/20 00:19:24;;;;;;;11.25;6.05;;;;;;;-144.57;100.00;62443.72;4750647;30;20094;-62
2023/03/20 00:21:51;;;;;;;12.73;6.18;;;;;;;-144.57;100.00;62443.72;4749514;30;20056;-62
2023/03/20 00:24:17;;;;;;;11.68;5.60;;;;;;;-144.57;100.00;62443.72;4750522;30;20052;-62
2023/03/20 00:26:44;;;;;;;14.70;6.13;;;;;;;-144.57;100.00;62443.72;4750317;30;20071;-62
2023/03/20 00:29:25;;;;;;;9.73;5.95;;;;;;;-144.57;100.00;62443.72;4764235;30;20049;-61
2023/03/20 00:31:50;;;;;;;12.35;5.60;;;;;;;-144.57;100.00;62443.72;4750768;30;20635;-62
2023/03/20 00:34:18;;;;;;;11.15;6.35;;;;;;;-144.57;100.00;62443.72;4746184;30;20048;-62
2023/03/20 00:36:45;;;;;;;10.95;5.93;;;;;;;-144.57;100.00;62443.72;4746499;30;20551;-62
2023/03/20 00:39:11;;;;;;;11.13;6.22;;;;;;;-144.57;100.00;62443.72;4733238;30;20060;-62
2023/03/20 00:41:36;;;;;;;17.10;6.53;;;;;;;-144.57;100.00;62443.72;4731445;30;20080;-62
2023/03/20 00:44:25;;;;;;;11.02;6.00;;;;;;;-144.57;100.00;62443.72;4763639;30;20096;-62
2023/03/20 00:46:56;;;;;;;11.25;5.85;;;;;;;-144.57;100.00;62443.72;4763566;30;20056;-62
2023/03/20 00:49:26;;;;;;;16.58;7.07;;;;;;;-144.57;100.00;62443.72;4765150;30;20499;-62
2023/03/20 00:51:53;;;;;;;11.98;6.40;;;;;;;-144.57;100.00;62443.72;4754426;30;20060;-62
2023/03/20 00:54:18;;;;;;;10.70;5.72;;;;;;;-144.57;100.00;62443.72;4754164;30;20102;-62
2023/03/20 00:57:11;;;;;;;11.48;6.20;;;;;;;-144.57;100.00;62443.72;4753945;30;20525;-62
2023/03/20 00:59:40;;;;;;;12.10;6.70;;;;;;;-144.57;100.00;62443.72;4753849;30;20120;-62
2023/03/20 01:02:07;;;;;;;11.40;6.50;;;;;;;-144.57;100.00;62443.72;4767523;30;20068;-63
2023/03/20 01:04:39;;;;;;;13.32;6.55;;;;;;;-144.57;100.00;62443.72;4766807;30;20519;-62
2023/03/20 01:07:06;;;;;;;11.57;5.97;;;;;;;-144.57;100.00;62443.72;4767308;30;20064;-62
2023/03/20 01:09:32;;;;;;;12.95;6.82;;;;;;;-144.57;100.00;62443.72;4767221;30;20064;-61
2023/03/20 01:11:59;;;;;;;13.80;6.32;;;;;;;-144.57;100.00;62443.72;4752474;30;20542;-63
2023/03/20 01:14:25;;;;;;;11.25;6.03;;;;;;;-144.57;100.00;62443.72;4767230;30;20135;-62
2023/03/20 01:16:51;;;;;;;11.45;6.20;;;;;;;-144.57;100.00;62443.72;4767149;30;20074;-62
2023/03/20 01:19:17;;;;;;;9.30;5.80;;;;;;;-144.57;100.00;62443.72;4753469;30;20462;-62
2023/03/20 01:21:42;;;;;;;12.15;5.80;;;;;;;-144.57;100.00;62443.72;4753646;30;20062;-63
2023/03/20 01:24:08;;;;;;;13.25;6.63;;;;;;;-144.57;100.00;62443.72;4753389;30;20519;-62
2023/03/20 01:26:36;;;;;;;19.48;6.85;;;;;;;-144.57;100.00;62443.72;4753406;30;20067;-62
2023/03/20 01:29:02;;;;;;;13.10;5.78;;;;;;;-144.57;100.00;62443.72;4766937;30;20068;-62
2023/03/20 01:31:31;;;;;;;13.18;6.25;;;;;;;-144.57;100.00;62443.72;4766864;30;20067;-61
2023/03/20 01:33:57;;;;;;;14.27;7.03;;;;;;;-144.57;100.00;62443.72;4751902;30;20044;-61
2023/03/20 01:36:22;;;;;;;13.10;6.50;;;;;;;-144.57;100.00;62443.72;4753210;30;20064;-62
2023/03/20 01:38:54;;;;;;;9.93;6.32;;;;;;;-144.57;100.00;62443.72;4752300;30;20052;-63
2023/03/20 01:41:20;;;;;;;;;;;;;;;-144.57;100.00;62443.72;4752357;30;20183;-62
2023/03/20 01:43:46;;;;;;;12.32;6.63;;;;;;;-144.57;100.00;62443.72;4753118;30;20017;-62
2023/03/20 01:46:28;;;;;;;17.92;6.60;;;;;;;-144.57;100.00;62443.72;4766536;30;20064;-62
2023/03/20 01:49:08;;;;;;;10.93;5.85;;;;;;;-144.57;100.00;62443.72;4736990;30;20507;-62
2023/03/20 01:51:36;;;;;;;11.60;6.03;;;;;;;-144.57;100.00;62443.72;4766518;30;20515;-62
2023/03/20 01:54:13;;;;;;;9.45;5.72;;;;;;;-144.57;100.00;62443.72;4766870;30;20122;-62
2023/03/20 01:56:56;;;;;;;17.80;7.03;;;;;;;-144.57;100.00;62443.72;4750922;30;20117;-61
2023/03/20 01:59:26;;;;;;;11.25;5.88;;;;;;;-144.57;100.00;62443.72;4774268;30;20109;-62
2023/03/20 02:01:52;;;;;;;15.57;5.68;;;;;;;-144.57;100.00;62443.72;4774484;30;20108;-63
2023/03/20 02:04:25;;;;;;;12.60;6.13;;;;;;;-144.57;100.00;62443.72;4775190;30;20065;-62
2023/03/20 02:06:55;;;;;;;16.23;7.28;;;;;;;-144.57;100.00;62443.72;4760074;30;20056;-62
2023/03/20 02:09:50;;;;;;;12.98;6.88;;;;;;;-144.57;100.00;62443.72;4764246;30;20062;-62
2023/03/20 02:12:23;;;;;;;12.52;6.68;;;;;;;-144.57;100.00;62443.72;4775806;30;20060;-62
2023/03/20 02:14:51;;;;;;;17.40;6.60;;;;;;;-144.57;100.00;62443.72;4766824;30;20427;-61
2023/03/20 02:17:54;;;;;;;13.55;6.38;;;;;;;-144.57;100.00;62443.72;4753585;30;20055;-62
2023/03/20 02:21:01;;;;;;;10.68;6.60;;;;;;;-144.57;100.00;62443.72;4784047;30;20095;-62
2023/03/20 02:23:33;;;;;;;15.38;6.78;;;;;;;-144.57;100.00;62443.72;4768187;30;20121;-62
2023/03/20 02:26:02;;;;;;;11.40;6.32;;;;;;;-144.57;100.00;62443.72;4754584;30;20483;-62
2023/03/20 02:29:02;;;;;;;11.55;6.05;;;;;;;-144.57;100.00;62443.72;4783788;30;20060;-62
2023/03/20 02:31:53;;;;;;;10.45;5.95;;;;;;;-144.57;100.00;62443.72;4783768;30;20205;-61
2023/03/20 02:34:37;;;;;;;7.70;4.85;;;;;;;-144.57;100.00;62443.72;4743734;30;20507;-62
2023/03/20 02:37:12;;;;;;;8.23;5.32;;;;;;;-144.57;100.00;62443.72;4765876;30;20067;-61
2023/03/20 02:39:59;;;;;;;10.15;5.00;;;;;;;-144.57;100.00;62443.72;4765905;30;20060;-62
2023/03/20 02:43:06;;;;;;;11.40;5.75;;;;;;;-144.57;100.00;62443.72;4765672;30;20056;-62
2023/03/20 02:45:35;;;;;;;7.90;4.80;;;;;;;-144.57;100.00;62443.72;4750544;30;20083;-63
2023/03/20 02:48:31;;;;;;;7.07;4.88;;;;;;;-144.57;100.00;62443.72;4765625;30;20072;-62
2023/03/20 02:51:28;;;;;;;8.43;4.95;;;;;;;-144.57;100.00;62443.72;4765694;30;20091;-61
2023/03/20 02:53:58;;;;;;;11.25;4.80;;;;;;;-144.57;100.00;62443.72;4735658;30;20155;-63
2023/03/20 02:56:45;;;;;;;8.07;4.43;;;;;;;-144.57;100.00;62443.72;4750811;30;20117;-61
2023/03/20 02:59:25;;;;;;;5.35;3.90;;;;;;;-144.57;100.00;62443.72;4750834;30;20598;-62
2023/03/20 03:01:59;;;;;;;8.63;4.43;;;;;;;-144.57;100.00;62443.72;4765500;30;20523;-62
2023/03/20 03:04:27;;;;;;;6.00;4.18;;;;;;;-144.57;100.00;62443.72;4750835;30;20662;-61
2023/03/20 03:06:54;;;;;;;8.23;4.13;;;;;;;-144.57;100.00;62443.72;4765364;30;20125;-61
2023/03/20 03:09:34;;;;;;;8.10;4.70;;;;;;;-144.57;100.00;62443.72;4750698;30;20054;-61
2023/03/20 03:12:11;;;;;;;6.88;4.55;;;;;;;-144.57;100.00;62443.72;4765105;30;20064;-62
2023/03/20 03:14:37;;;;;;;7.40;4.63;;;;;;;-144.57;100.00;62443.72;4750416;30;20059;-62
2023/03/20 03:17:06;;;;;;;10.52;4.78;;;;;;;-144.57;100.00;62443.72;4765094;30;20068;-62
2023/03/20 03:19:34;;;;;;;6.22;3.88;;;;;;;-144.57;100.00;62443.72;4764985;30;20064;-62
2023/03/20 03:22:00;;;;;;;6.60;4.18;;;;;;;-144.57;100.00;62443.72;4750436;30;20084;-62
2023/03/20 03:24:33;;;;;;;7.05;4.03;;;;;;;-144.57;100.00;62443.72;4764957;30;20598;-62
2023/03/20 03:27:00;;;;;;;8.32;4.10;;;;;;;-144.57;100.00;62443.72;4751478;30;20155;-61
2023/03/20 03:29:30;;;;;;;6.82;4.22;;;;;;;-144.57;100.00;62443.72;4750089;30;20454;-62
2023/03/20 03:31:56;;;;;;;5.77;3.77;;;;;;;-144.57;100.00;62443.72;4751622;30;20309;-61
2023/03/20 03:34:22;;;;;;;5.78;4.00;;;;;;;-144.57;100.00;62443.72;4749963;30;20142;-62
2023/03/20 03:37:06;;;;;;;7.55;4.10;;;;;;;-144.57;100.00;62443.72;4764531;30;20064;-61
2023/03/20 03:39:35;;;;;;;9.70;3.78;;;;;;;-144.57;100.00;62443.72;4764446;30;20059;-63
2023/03/20 03:42:03;;;;;;;5.75;4.25;;;;;;;-144.57;100.00;62443.72;4751019;30;20205;-61
2023/03/20 03:44:59;;;;;;;8.40;4.05;;;;;;;-144.57;100.00;62443.72;4749158;30;20085;-61
2023/03/20 03:48:03;;;;;;;6.45;4.25;;;;;;;-144.57;100.00;62443.72;4764840;30;20068;-63
2023/03/20 03:50:50;;;;;;;9.57;4.95;;;;;;;-144.57;100.00;62443.72;4764415;30;20060;-62
2023/03/20 03:53:23;;;;;;;8.75;4.65;;;;;;;-144.57;100.00;62443.72;4749695;30;20071;-62
2023/03/20 03:55:59;;;;;;;9.52;4.32;;;;;;;-144.57;100.00;62443.72;4749886;30;20060;-63
2023/03/20 03:58:30;;;;;;;8.82;4.53;;;;;;;-144.57;100.00;62443.72;4764206;30;20064;-62
2023/03/20 04:00:58;;;;;;;9.55;4.80;;;;;;;-144.57;100.00;62443.72;4764446;30;20489;-63
2023/03/20 04:03:29;;;;;;;10.27;5.53;;;;;;;-144.57;100.00;62443.72;4763192;30;20060;-63
2023/03/20 04:05:56;;;;;;;7.78;4.88;;;;;;;-144.57;100.00;62443.72;4750815;30;20084;-65
2023/03/20 04:08:22;;;;;;;13.98;7.13;;;;;;;-144.57;100.00;62443.72;4764352;30;20052;-62
2023/03/20 04:10:48;;;;;;;11.00;5.63;;;;;;;-144.57;100.00;62443.72;4749418;30;20060;-61
2023/03/20 04:13:15;;;;;;;10.13;5.18;;;;;;;-144.57;100.00;62443.72;4749456;30;20056;-62
2023/03/20 04:15:41;;;;;;;6.85;4.10;;;;;;;-144.57;100.00;62443.72;4764219;30;20190;-62
2023/03/20 04:18:14;;;;;;;8.02;4.47;;;;;;;-144.57;100.00;62443.72;4749304;30;20442;-61
2023/03/20 04:20:40;;;;;;;7.97;4.80;;;;;;;-144.57;100.00;62443.72;4732974;30;20052;-62
2023/03/20 04:23:06;;;;;;;9.50;5.38;;;;;;;-144.57;100.00;62443.72;4761270;30;20098;-61
2023/03/20 04:25:32;;;;;;;9.30;5.13;;;;;;;-144.57;100.00;62443.72;4745876;30;20061;-62
2023/03/20 04:27:57;;;;;;;7.72;4.38;;;;;;;-144.57;100.00;62443.72;4761298;30;20063;-63
2023/03/20 04:31:02;;;;;;;5.82;4.32;;;;;;;-144.57;100.00;62443.72;4713033;30;20069;-64
2023/03/20 04:34:06;;;;;;;9.38;4.63;;;;;;;-144.57;100.00;62443.72;4687662;30;20536;-62
2023/03/20 04:36:50;;;;;;;7.32;4.28;;;;;;;-144.57;100.00;62443.72;4708087;30;20089;-63
2023/03/20 04:39:18;;;;;;;10.38;4.70;;;;;;;-144.57;100.00;62443.72;4735019;30;20071;-63
2023/03/20 04:41:43;;;;;;;8.20;4.22;;;;;;;-144.57;100.00;62443.72;4764224;30;20567;-62
2023/03/20 04:44:10;;;;;;;8.48;3.78;;;;;;;-144.57;100.00;62443.72;4749285;30;20114;-62
2023/03/20 04:46:36;;;;;;;7.65;4.28;;;;;;;-144.57;100.00;62443.72;4764145;30;20064;-62
2023/03/20 04:49:07;;;;;;;7.07;3.78;;;;;;;-144.57;100.00;62443.72;4764037;30;20056;-62
2023/03/20 04:51:35;;;;;;;7.15;3.70;;;;;;;-144.57;100.00;62443.72;4763527;30;20143;-62
2023/03/20 04:54:02;;;;;;;5.13;3.83;;;;;;;-144.57;100.00;62443.72;4748839;30;20060;-63
2023/03/20 04:56:29;;;;;;;6.57;3.53;;;;;;;-144.57;100.00;62443.72;4763369;30;20064;-63
2023/03/20 04:59:09;;;;;;;7.55;3.70;;;;;;;-144.57;100.00;62443.72;4748891;30;20127;-63
2023/03/20 05:01:35;;;;;;;6.30;3.33;;;;;;;-144.57;100.00;62443.72;4763711;30;20441;-63
2023/03/20 05:04:01;;;;;;;7.22;3.85;;;;;;;-144.57;100.00;62443.72;4763835;30;20589;-63
2023/03/20 05:06:33;;;;;;;8.15;3.58;;;;;;;-144.57;100.00;62443.72;4766276;30;20063;-62
2023/03/20 05:08:59;;;;;;;7.57;3.72;;;;;;;-144.57;100.00;62443.72;4771959;30;20072;-63
2023/03/20 05:11:27;;;;;;;6.63;3.00;;;;;;;-144.57;100.00;62443.72;4769773;30;20092;-63
2023/03/20 05:14:10;;;;;;;7.70;3.13;;;;;;;-144.57;100.00;62443.72;4756692;30;20061;-65
2023/03/20 05:16:42;;;;;;;8.40;4.80;;;;;;;-144.57;100.00;62443.72;4767332;30;20098;-62
2023/03/20 05:19:31;;;;;;;5.68;3.55;;;;;;;-144.57;100.00;62443.72;4753337;30;20676;-62
2023/03/20 05:22:06;;;;;;;5.32;3.22;;;;;;;-144.57;100.00;62443.72;4763411;30;20098;-62
2023/03/20 05:24:47;;;;;;;6.05;3.50;;;;;;;-144.57;100.00;62443.72;4767503;30;20056;-61
2023/03/20 05:27:31;;;;;;;4.68;3.22;;;;;;;-144.57;100.00;62443.72;4781775;30;20158;-63
2023/03/20 05:30:06;;;;;;;5.20;3.72;;;;;;;-144.57;100.00;62443.72;4781482;30;20209;-62
2023/03/20 05:32:32;;;;;;;7.13;4.28;;;;;;;-144.57;100.00;62443.72;4763978;30;20056;-62
2023/03/20 05:35:19;;;;;;;6.82;3.40;;;;;;;-144.57;100.00;62443.72;4760395;30;20060;-63
2023/03/20 05:38:01;;;;;;;6.97;3.90;;;;;;;-144.57;100.00;62443.72;4750681;30;20083;-67
2023/03/20 05:40:42;;;;;;;7.57;3.60;;;;;;;-144.57;100.00;62443.72;4772534;30;20135;-62
2023/03/20 05:43:13;;;;;;;5.70;3.78;;;;;;;-144.57;100.00;62443.72;4757390;30;20063;-60
2023/03/20 05:46:02;;;;;;;6.65;4.00;;;;;;;-144.57;100.00;62443.72;4779351;30;20511;-61
2023/03/20 05:48:44;;;;;;;8.32;3.90;;;;;;;-144.57;100.00;62443.72;4752408;30;20055;-62
2023/03/20 05:51:33;;;;;;;6.53;3.95;;;;;;;-144.57;100.00;62443.72;4770514;30;20150;-64
2023/03/20 05:54:05;;;;;;;7.60;4.07;;;;;;;-144.57;100.00;62443.72;4767838;30;20120;-62
2023/03/20 05:56:31;;;;;;;7.35;4.38;;;;;;;-144.57;100.00;62443.72;4767734;30;20067;-62
2023/03/20 05:59:29;;;;;;;7.55;3.90;;;;;;;-144.57;100.00;62443.72;4766748;30;20060;-63
2023/03/20 06:02:13;;;;;;;10.10;4.40;;;;;;;-144.57;100.00;62443.72;4767960;30;20063;-62
2023/03/20 06:04:46;;;;;;;6.95;3.65;;;;;;;-144.57;100.00;62443.72;4769029;30;20055;-63
2023/03/20 06:07:21;;;;;;;7.38;3.35;;;;;;;-144.57;100.00;62443.72;4784038;30;20067;-62
2023/03/20 06:09:55;;;;;;;7.72;4.00;;;;;;;-144.57;100.00;62443.72;4768313;30;20135;-61
2023/03/20 06:12:21;;;;;;;8.23;4.43;;;;;;;-144.57;100.00;62443.72;4777599;30;20091;-64
2023/03/20 06:14:47;;;;;;;11.52;3.95;;;;;;;-144.57;100.00;62443.72;4774402;30;20056;-63
2023/03/20 06:17:13;;;;;;;9.25;4.22;;;;;;;-144.57;100.00;62443.72;4752797;30;20461;-64
2023/03/20 06:19:40;;;;;;;7.97;4.43;;;;;;;-144.57;100.00;62443.72;4773390;30;20060;-65
2023/03/20 06:22:05;;;;;;;8.07;4.65;;;;;;;-144.57;100.00;62443.72;4759071;30;20419;-65
2023/03/20 06:24:32;;;;;;;10.18;4.93;;;;;;;-144.57;100.00;62443.72;4760563;30;20062;-65
2023/03/20 06:26:58;;;;;;;7.38;4.82;;;;;;;-144.57;100.00;62443.72;4772500;30;20071;-63
2023/03/20 06:29:25;;;;;;;6.70;4.32;;;;;;;-144.57;100.00;62443.72;4772062;30;20140;-63
2023/03/20 06:31:53;;;;;;;10.50;4.43;;;;;;;-144.57;100.00;62443.72;4774297;30;20056;-64
2023/03/20 06:34:27;;;;;;;7.65;5.10;;;;;;;-144.57;100.00;62443.72;4764004;30;20048;-64
2023/03/20 06:36:52;;;;;;;9.10;5.28;;;;;;;-144.57;100.00;62443.72;4766646;30;20087;-61
2023/03/20 06:39:21;;;;;;;10.65;4.93;;;;;;;-144.57;100.00;62443.72;4770006;30;20066;-63
2023/03/20 06:41:47;;;;;;;7.55;4.75;;;;;;;-144.57;100.00;62443.72;4783195;30;20063;-64
2023/03/20 06:44:14;;;;;;;10.82;5.35;;;;;;;-144.57;100.00;62443.72;4767204;30;20056;-61
2023/03/20 06:46:58;;;;;;;7.43;4.53;;;;;;;-144.57;100.00;62443.72;4768527;30;20137;-64
2023/03/20 06:49:24;;;;;;;9.52;5.43;;;;;;;-144.57;100.00;62443.72;4780440;30;20055;-61
2023/03/20 06:51:50;;;;;;;11.35;5.57;;;;;;;-144.57;100.00;62443.72;4768244;30;20070;-62
2023/03/20 06:54:22;;;;;;;13.98;5.25;;;;;;;-144.57;100.00;62443.72;4767174;30;20070;-62
2023/03/20 06:56:48;;;;;;;18.33;5.45;;;;;;;-144.57;100.00;62443.72;4782888;30;20426;-63
2023/03/20 06:59:14;;;;;;;10.10;5.47;;;;;;;-144.57;100.00;62443.72;4782123;30;20085;-62
2023/03/20 07:01:40;;;;;;;8.40;4.93;;;;;;;-144.57;100.00;62443.72;4768124;30;20058;-62
2023/03/20 07:04:06;;;;;;;9.38;5.13;;;;;;;-144.57;100.00;62443.72;4781478;30;20427;-63
2023/03/20 07:06:38;;;;;;;8.70;6.00;;;;;;;-144.57;100.00;62443.72;4781236;30;20068;-62
2023/03/20 07:09:06;;;;;;;10.57;4.53;;;;;;;-144.57;100.00;62443.72;4767085;30;20533;-61
2023/03/20 07:11:33;;;;;;;12.20;5.30;;;;;;;-144.57;100.00;62443.72;4782437;30;20154;-62
2023/03/20 07:14:00;;;;;;;7.25;5.15;;;;;;;-144.57;100.00;62443.72;4766673;30;20515;-63
2023/03/20 07:16:41;;;;;;;8.95;4.85;;;;;;;-144.57;100.00;62443.72;4780838;30;20071;-62
2023/03/20 07:19:07;;;;;;;14.23;5.13;;;;;;;-144.57;100.00;62443.72;4780818;30;20124;-62
2023/03/20 07:21:34;;;;;;;10.95;4.70;;;;;;;-144.57;100.00;62443.72;4781316;30;20066;-62
2023/03/20 07:24:00;;;;;;;8.25;4.85;;;;;;;-144.57;100.00;62443.72;4781220;30;20052;-63
2023/03/20 07:26:26;;;;;;;9.80;4.72;;;;;;;-144.57;100.00;62443.72;4768782;30;20056;-63
2023/03/20 07:28:52;;;;;;;8.57;5.15;;;;;;;-144.57;100.00;62443.72;4781810;30;20063;-62
2023/03/20 07:31:27;;;;;;;10.57;5.47;;;;;;;-144.57;100.00;62443.72;4781470;30;20071;-61
2023/03/20 07:34:25;;;;;;;9.18;5.40;;;;;;;-144.57;100.00;62443.72;4746786;30;20531;-62
2023/03/20 07:36:53;;;;;;;9.38;5.38;;;;;;;-144.57;100.00;62443.72;4763848;30;20558;-62
2023/03/20 07:39:21;;;;;;;12.02;6.22;;;;;;;-144.57;100.00;62443.72;4750529;30;20257;-61
2023/03/20 07:42:13;;;;;;;11.48;5.82;;;;;;;-144.57;100.00;62443.72;4761500;30;20076;-62
2023/03/20 07:44:55;;;;;;;11.07;5.90;;;;;;;-144.57;100.00;62443.72;4764086;30;20060;-62
2023/03/20 07:47:22;;;;;;;9.85;5.30;;;;;;;-144.57;100.00;62443.72;4757672;30;20473;-63
2023/03/20 07:49:48;;;;;;;12.30;5.72;;;;;;;-144.57;100.00;62443.72;4757605;30;20048;-63
2023/03/20 07:52:13;;;;;;;10.02;5.03;;;;;;;-144.57;100.00;62443.72;4756438;30;20055;-63
2023/03/20 07:54:39;;;;;;;8.57;5.15;;;;;;;-144.57;100.00;62443.72;4757701;30;20048;-64
2023/03/20 07:57:05;;;;;;;12.02;5.82;;;;;;;-144.57;100.00;62443.72;4769746;30;20399;-60
2023/03/20 07:59:31;;;;;;;13.38;5.68;;;;;;;-144.57;100.00;62443.72;4756640;30;20083;-62
2023/03/20 08:01:57;;;;;;;8.73;5.30;;;;;;;-144.57;100.00;62443.72;4757074;30;20148;-62
2023/03/20 08:04:23;;;;;;;9.75;5.43;;;;;;;-144.57;100.00;62443.72;4752481;30;20582;-63
2023/03/20 08:06:49;;;;;;;13.70;6.00;;;;;;;-144.57;100.00;62443.72;4754278;30;20060;-62
2023/03/20 08:09:15;;;;;;;8.38;5.13;;;;;;;-144.57;100.00;62443.72;4755296;30;20051;-62
2023/03/20 08:11:41;;;;;;;7.93;4.97;;;;;;;-144.57;100.00;62443.72;4775752;30;20052;-63
2023/03/20 08:14:06;;;;;;;14.80;5.88;;;;;;;-144.57;100.00;62443.72;4752769;30;20067;-61
2023/03/20 08:16:33;;;;;;;10.80;5.82;;;;;;;-144.57;100.00;62443.72;4759275;30;20091;-63
2023/03/20 08:19:04;;;;;;;8.75;5.60;;;;;;;-144.57;100.00;62443.72;4747015;30;20056;-63
2023/03/20 08:21:30;;;;;;;7.93;5.20;;;;;;;-144.57;100.00;62443.72;4748385;30;20056;-63
2023/03/20 08:23:56;;;;;;;16.23;5.03;;;;;;;-144.57;100.00;62443.72;4748924;30;20052;-62
2023/03/20 08:26:22;;;;;;;13.32;5.45;;;;;;;-144.57;100.00;62443.72;4747946;30;20063;-63
2023/03/20 08:28:48;;;;;;;11.52;5.25;;;;;;;-144.57;100.00;62443.72;4749782;30;20075;-61
2023/03/20 08:31:15;;;;;;;10.75;5.32;;;;;;;-144.57;100.00;62443.72;4747721;30;20515;-61
2023/03/20 08:33:41;;;;;;;12.82;5.03;;;;;;;-144.57;100.00;62443.72;4749092;30;20272;-61
2023/03/20 08:36:07;;;;;;;9.00;5.15;;;;;;;-144.57;100.00;62443.72;4750429;30;20395;-62
2023/03/20 08:38:33;;;;;;;10.35;4.90;;;;;;;-144.57;100.00;62443.72;4763104;30;20064;-62
2023/03/20 08:40:58;;;;;;;13.25;5.60;;;;;;;-144.57;100.00;62443.72;4761635;30;20053;-62
2023/03/20 08:43:24;;;;;;;9.02;5.22;;;;;;;-144.57;100.00;62443.72;4749296;30;20063;-62
2023/03/20 08:45:51;;;;;;;9.02;4.85;;;;;;;-144.57;100.00;62443.72;4761717;30;20052;-62
2023/03/20 08:48:17;;;;;;;11.77;5.50;;;;;;;-144.57;100.00;62443.72;4748167;30;20052;-62
2023/03/20 08:50:43;;;;;;;12.48;4.95;;;;;;;-144.57;100.00;62443.72;4748330;30;20507;-62
2023/03/20 08:53:09;;;;;;;14.27;5.88;;;;;;;-144.57;100.00;62443.72;4761094;30;20510;-62
2023/03/20 08:55:35;;;;;;;11.00;5.05;;;;;;;-144.57;100.00;62443.72;4748323;30;20139;-62
2023/03/20 08:58:01;;;;;;;10.60;5.32;;;;;;;-144.57;100.00;62443.72;4748101;30;20192;-66
2023/03/20 09:00:26;;;;;;;9.55;5.00;;;;;;;-144.57;100.00;62443.72;4750888;30;20059;-63
2023/03/20 09:02:52;;;;;;;8.60;4.50;;;;;;;-144.57;100.00;62443.72;4766093;30;20068;-61
2023/03/20 09:05:18;;;;;;;15.70;5.50;;;;;;;-144.57;100.00;62443.72;4766379;30;20059;-62
2023/03/20 09:07:44;;;;;;;19.40;4.90;;;;;;;-144.57;100.00;62443.72;4780988;30;20066;-62
2023/03/20 09:10:10;;;;;;;11.85;4.97;;;;;;;-144.57;100.00;62443.72;4767869;30;20063;-64
2023/03/20 09:12:38;;;;;;;9.38;5.13;;;;;;;-144.57;100.00;62443.72;4782407;30;20064;-63
2023/03/20 09:15:04;;;;;;;8.77;4.13;;;;;;;-144.57;100.00;62443.72;4781748;30;20088;-62
2023/03/20 09:17:30;;;;;;;12.18;5.20;;;;;;;-144.57;100.00;62443.72;4750845;30;20117;-61
2023/03/20 09:19:56;;;;;;;11.98;5.70;;;;;;;-144.57;100.00;62443.72;4751095;30;20067;-64
2023/03/20 09:22:24;;;;;;;8.73;4.53;;;;;;;-144.57;100.00;62443.72;4764285;30;20068;-61
2023/03/20 09:24:49;;;;;;;11.57;4.35;;;;;;;-144.57;100.00;62443.72;4749608;30;20062;-65
2023/03/20 09:27:15;;;;;;;12.25;4.70;;;;;;;-144.57;100.00;62443.72;4764580;30;20151;-62
2023/03/20 09:29:42;;;;;;;8.55;4.47;;;;;;;-144.57;100.00;62443.72;4751041;30;20147;-61
2023/03/20 09:32:11;;;;;;;12.95;4.57;;;;;;;-144.57;100.00;62443.72;4764236;30;20555;-61
2023/03/20 09:34:36;;;;;;;9.05;4.35;;;;;;;-144.57;100.00;62443.72;4750553;30;20056;-60
2023/03/20 09:37:02;;;;;;;9.10;4.43;;;;;;;-144.57;100.00;62443.72;4751104;30;20153;-63
2023/03/20 09:39:29;;;;;;;10.07;4.70;;;;;;;-144.57;100.00;62443.72;4752123;30;20221;-62
2023/03/20 09:41:57;;;;;;;12.77;4.38;;;;;;;-144.57;100.00;62443.72;4765822;30;20056;-61
2023/03/20 09:45:08;;;;;;;6.95;4.55;;;;;;;-144.57;100.00;62443.72;4763645;30;20048;-63
2023/03/20 09:47:49;;;;;;;8.07;5.30;;;;;;;-144.57;100.00;62443.72;4731988;30;20065;-61
2023/03/20 09:50:33;;;;;;;11.05;5.10;;;;;;;-144.57;100.00;62443.72;4750457;30;20539;-63
2023/03/20 09:53:07;;;;;;;11.25;5.55;;;;;;;-144.57;100.00;62443.72;4750152;30;20154;-62
2023/03/20 09:55:35;;;;;;;11.82;6.07;;;;;;;-144.57;100.00;62443.72;4749598;30;20063;-62
2023/03/20 09:58:07;;;;;;;13.70;6.53;;;;;;;-144.57;100.00;62443.72;4750746;30;20129;-63
2023/03/20 10:00:34;;;;;;;9.18;5.85;;;;;;;-144.57;100.00;62443.72;4748961;30;20622;-62
2023/03/20 10:03:06;;;;;;;12.85;6.65;;;;;;;-144.57;100.00;62443.72;4750883;30;20071;-62
2023/03/20 10:05:44;;;;;;;14.98;6.30;;;;;;;-144.57;100.00;62443.72;4749572;30;20057;-62
2023/03/20 10:08:15;;;;;;;15.50;6.43;;;;;;;-144.57;100.00;62443.72;4763223;30;20067;-62
2023/03/20 10:10:59;;;;;;;15.05;5.30;;;;;;;-144.57;100.00;62443.72;4749695;30;20060;-63
2023/03/20 10:13:40;;;;;;;14.57;6.20;;;;;;;-144.57;100.00;62443.72;4763691;30;20090;-63
2023/03/20 10:16:30;;;;;;;12.35;5.60;;;;;;;-144.57;100.00;62443.72;4772230;30;20422;-63
2023/03/20 10:19:15;;;;;;;17.55;6.63;;;;;;;-144.57;100.00;62443.72;4756764;30;20059;-62
2023/03/20 10:21:50;;;;;;;13.00;5.63;;;;;;;-144.57;100.00;62443.72;4766780;30;20106;-63
2023/03/20 10:24:20;;;;;;;14.68;6.20;;;;;;;-144.57;100.00;62443.72;4769250;30;20056;-62
2023/03/20 10:26:49;;;;;;;15.57;5.78;;;;;;;-144.57;100.00;62443.72;4740839;30;20074;-62
2023/03/20 10:29:37;;;;;;;12.13;5.75;;;;;;;-144.57;100.00;62443.72;4771845;30;20588;-61
2023/03/20 10:32:28;;;;;;;12.30;6.32;;;;;;;-144.57;100.00;62443.72;4758390;30;20059;-61
2023/03/20 10:35:26;;;;;;;12.57;5.57;;;;;;;-144.57;100.00;62443.72;4773271;30;20055;-63
2023/03/20 10:37:59;;;;;;;9.95;5.93;;;;;;;-144.57;100.00;62443.72;4757529;30;20055;-63
2023/03/20 10:40:37;;;;;;;15.45;6.78;;;;;;;-144.57;100.00;62443.72;4756198;30;20332;-63
2023/03/20 10:43:27;;;;;;;14.27;5.80;;;;;;;-144.57;100.00;62443.72;4756558;30;20111;-62
2023/03/20 10:45:56;;;;;;;;;;;;;;;-144.57;100.00;62443.72;4757078;30;20055;-61
2023/03/20 10:48:30;;;;;;;8.23;5.07;;;;;;;-144.57;100.00;62443.72;4772471;30;19925;-62
2023/03/20 10:51:02;;;;;;;9.07;5.40;;;;;;;-144.57;100.00;62443.72;4756507;30;20125;-63
2023/03/20 10:53:36;;;;;;;12.32;5.03;;;;;;;-144.57;100.00;62443.72;4764597;30;20125;-60
2023/03/20 10:56:06;;;;;;;11.20;5.93;;;;;;;-144.57;100.00;62443.72;4767875;30;20144;-63
2023/03/20 10:58:36;;;;;;;11.05;4.85;;;;;;;-144.57;100.00;62443.72;4782405;30;20080;-60
2023/03/20 11:01:02;;;;;;;10.88;6.18;;;;;;;-144.57;100.00;62443.72;4767903;30;20067;-62
2023/03/20 11:03:29;;;;;;;8.15;4.95;;;;;;;-144.57;100.00;62443.72;4782230;30;20063;-63
2023/03/20 11:06:13;;;;;;;8.40;4.55;;;;;;;-144.57;100.00;62443.72;4767274;30;20562;-64
2023/03/20 11:08:41;;;;;;;8.40;4.70;;;;;;;-144.57;100.00;62443.72;4769273;30;20068;-63
2023/03/20 11:11:08;;;;;;;8.02;4.70;;;;;;;-144.57;100.00;62443.72;4749054;30;20117;-65
2023/03/20 11:13:37;;;;;;;10.57;4.47;;;;;;;-144.57;100.00;62443.72;4750261;30;20058;-65
2023/03/20 11:16:22;;;;;;;10.65;4.15;;;;;;;-144.57;100.00;62443.72;4749390;30;20545;-64
2023/03/20 11:18:48;;;;;;;9.70;4.13;;;;;;;-144.57;100.00;62443.72;4762313;30;20068;-65
2023/03/20 11:21:18;;;;;;;7.82;4.25;;;;;;;-144.57;100.00;62443.72;4747377;30;20449;-65
2023/03/20 11:23:44;;;;;;;6.80;4.20;;;;;;;-144.57;100.00;62443.72;4763192;30;20064;-64
2023/03/20 11:26:15;;;;;;;9.85;4.88;;;;;;;-144.57;100.00;62443.72;4764488;30;20068;-66
2023/03/20 11:28:46;;;;;;;6.65;4.35;;;;;;;-144.57;100.00;62443.72;4749420;30;20068;-63
2023/03/20 11:31:12;;;;;;;13.60;4.75;;;;;;;-144.57;100.00;62443.72;4762916;30;20116;-66